createdAt,value
2023-03-24T00:02:25.863Z,2.00
2023-03-24T00:04:58.968Z,2.25
2023-03-24T00:07:30.882Z,2.20
2023-03-24T00:09:59.550Z,2.03
2023-03-24T00:12:28.221Z,2.10
2023-03-24T00:14:57.125Z,2.05
2023-03-24T00:17:29.407Z,2.08
2023-03-24T00:19:58.231Z,1.88
2023-03-24T00:22:28.405Z,1.70
2023-03-24T00:24:57.196Z,1.90
2023-03-24T00:27:26.180Z,1.60
2023-03-24T00:29:54.688Z,2.53
2023-03-24T00:32:24.319Z,2.00
2023-03-24T00:34:54.729Z,2.15
2023-03-24T00:37:24.417Z,1.70
2023-03-24T00:39:53.024Z,1.42
2023-03-24T00:42:22.544Z,1.90
2023-03-24T00:44:51.336Z,1.83
2023-03-24T00:47:26.164Z,2.17
2023-03-24T00:49:58.270Z,1.98
2023-03-24T00:52:34.161Z,1.70
2023-03-24T00:55:05.755Z,2.35
2023-03-24T00:57:35.668Z,2.40
2023-03-24T01:00:14.679Z,2.13
2023-03-24T01:02:43.928Z,1.80
2023-03-24T01:05:18.118Z,1.50
2023-03-24T01:07:52.515Z,2.47
2023-03-24T01:10:26.862Z,2.38
2023-03-24T01:12:58.524Z,2.22
2023-03-24T01:15:30.208Z,2.00
2023-03-24T01:18:02.584Z,2.08
2023-03-24T01:20:35.873Z,2.33
2023-03-24T01:23:06.514Z,1.80
2023-03-24T01:25:37.951Z,2.50
2023-03-24T01:28:07.547Z,2.10
2023-03-24T01:30:36.595Z,1.60
2023-03-24T01:33:06.320Z,1.88
2023-03-24T01:35:37.486Z,2.42
2023-03-24T01:38:09.190Z,2.45
2023-03-24T01:40:41.947Z,2.53
2023-03-24T01:43:20.406Z,2.08
2023-03-24T01:46:18.122Z,1.45
2023-03-24T01:48:52.621Z,1.80
2023-03-24T01:51:26.461Z,1.95
2023-03-24T01:53:57.893Z,1.67
2023-03-24T01:56:27.713Z,1.85
2023-03-24T01:59:00.528Z,2.38
2023-03-24T02:01:32.277Z,1.63
2023-03-24T02:04:04.680Z,1.92
2023-03-24T02:06:44.298Z,1.73
2023-03-24T02:09:15.648Z,1.95
2023-03-24T02:11:46.534Z,1.95
2023-03-24T02:14:15.802Z,2.40
2023-03-24T02:16:59.404Z,1.60
2023-03-24T02:19:57.598Z,2.05
2023-03-24T02:23:02.084Z,2.00
2023-03-24T02:25:56.191Z,2.00
2023-03-24T02:28:38.659Z,2.15
2023-03-24T02:31:52.702Z,1.88
2023-03-24T02:34:57.408Z,2.08
2023-03-24T02:37:49.333Z,1.83
2023-03-24T02:40:35.661Z,1.88
2023-03-24T02:43:25.182Z,1.90
2023-03-24T02:46:13.858Z,2.17
2023-03-24T02:48:56.513Z,1.65
2023-03-24T02:51:31.940Z,1.90
2023-03-24T02:54:09.790Z,2.28
2023-03-24T02:56:44.785Z,2.20
2023-03-24T02:59:19.973Z,2.25
2023-03-24T03:01:57.909Z,1.75
2023-03-24T03:04:33.288Z,2.17
2023-03-24T03:07:10.363Z,2.05
2023-03-24T03:09:43.019Z,1.98
2023-03-24T03:12:15.887Z,1.48
2023-03-24T03:14:49.033Z,1.80
2023-03-24T03:17:21.149Z,1.90
2023-03-24T03:19:56.372Z,2.00
2023-03-24T03:22:31.063Z,2.03
2023-03-24T03:25:03.892Z,1.42
2023-03-24T03:27:39.324Z,1.98
2023-03-24T03:30:13.900Z,1.73
2023-03-24T03:32:46.721Z,1.65
2023-03-24T03:35:22.821Z,1.45
2023-03-24T03:37:58.867Z,1.85
2023-03-24T03:40:34.689Z,2.03
2023-03-24T03:43:05.973Z,2.20
2023-03-24T03:45:35.116Z,1.73
2023-03-24T03:48:03.912Z,2.13
2023-03-24T03:50:33.946Z,2.50
2023-03-24T03:53:03.776Z,2.05
2023-03-24T03:55:32.811Z,2.47
2023-03-24T03:58:01.763Z,3.03
2023-03-24T04:00:32.183Z,1.90
2023-03-24T04:03:19.364Z,2.38
2023-03-24T04:05:58.019Z,1.98
2023-03-24T04:08:33.790Z,2.75
2023-03-24T04:11:26.041Z,2.03
2023-03-24T04:14:11.132Z,2.28
2023-03-24T04:16:55.146Z,2.25
2023-03-24T04:19:38.930Z,2.63
2023-03-24T04:22:24.365Z,2.17
2023-03-24T04:24:57.187Z,2.45
2023-03-24T04:27:38.566Z,2.58
2023-03-24T04:30:17.011Z,2.53
2023-03-24T04:32:58.697Z,1.90
2023-03-24T04:35:33.122Z,2.25
2023-03-24T04:38:05.443Z,2.17
2023-03-24T04:40:42.036Z,2.17
2023-03-24T04:43:15.154Z,2.00
2023-03-24T04:45:44.029Z,2.50
2023-03-24T04:48:16.263Z,2.47
2023-03-24T04:50:53.047Z,2.10
2023-03-24T04:53:22.815Z,2.30
2023-03-24T04:56:19.749Z,2.03
2023-03-24T04:58:51.049Z,2.28
2023-03-24T05:01:21.727Z,2.80
2023-03-24T05:03:52.157Z,2.60
2023-03-24T05:06:20.639Z,2.67
2023-03-24T05:08:49.262Z,2.28
2023-03-24T05:11:18.142Z,2.50
2023-03-24T05:13:47.430Z,3.20
2023-03-24T05:16:17.159Z,2.65
2023-03-24T05:18:45.737Z,2.55
2023-03-24T05:21:15.515Z,2.25
2023-03-24T05:23:43.931Z,2.85
2023-03-24T05:26:12.448Z,2.67
2023-03-24T05:28:41.078Z,2.63
2023-03-24T05:31:09.528Z,2.65
2023-03-24T05:33:38.486Z,2.53
2023-03-24T05:36:07.405Z,2.03
2023-03-24T05:38:37.630Z,2.22
2023-03-24T05:41:07.641Z,2.60
2023-03-24T05:43:36.304Z,1.75
2023-03-24T05:46:04.744Z,2.22
2023-03-24T05:48:33.311Z,2.50
2023-03-24T05:51:02.081Z,2.45
2023-03-24T05:53:31.246Z,2.72
2023-03-24T05:56:01.381Z,3.15
2023-03-24T05:58:29.983Z,2.67
2023-03-24T06:01:00.130Z,2.38
2023-03-24T06:03:34.937Z,1.83
2023-03-24T06:06:03.906Z,2.80
2023-03-24T06:08:34.107Z,2.92
2023-03-24T06:11:05.724Z,2.65
2023-03-24T06:13:34.462Z,2.90
2023-03-24T06:16:03.915Z,2.00
2023-03-24T06:18:33.835Z,2.88
2023-03-24T06:21:02.529Z,3.00
2023-03-24T06:23:31.111Z,2.83
2023-03-24T06:26:01.836Z,2.78
2023-03-24T06:28:34.848Z,2.40
2023-03-24T06:31:06.960Z,3.40
2023-03-24T06:33:35.459Z,3.00
2023-03-24T06:36:04.506Z,2.60
2023-03-24T06:38:33.947Z,3.28
2023-03-24T06:41:03.299Z,3.17
2023-03-24T06:43:33.825Z,2.60
2023-03-24T06:46:02.748Z,2.60
2023-03-24T06:48:31.466Z,2.58
2023-03-24T06:51:00.191Z,2.40
2023-03-24T06:53:28.944Z,2.70
2023-03-24T06:55:57.573Z,2.85
2023-03-24T06:58:27.112Z,2.72
2023-03-24T07:00:57.722Z,2.35
2023-03-24T07:03:26.773Z,2.80
2023-03-24T07:05:55.788Z,3.28
2023-03-24T07:08:37.551Z,3.50
2023-03-24T07:11:10.050Z,2.90
2023-03-24T07:13:39.407Z,2.95
2023-03-24T07:16:10.269Z,3.35
2023-03-24T07:18:38.950Z,3.80
2023-03-24T07:21:08.675Z,3.53
2023-03-24T07:23:37.580Z,3.55
2023-03-24T07:26:07.799Z,2.88
2023-03-24T07:28:36.181Z,3.60
2023-03-24T07:31:07.016Z,2.80
2023-03-24T07:33:38.861Z,3.30
2023-03-24T07:36:08.420Z,3.35
2023-03-24T07:38:36.881Z,3.00
2023-03-24T07:41:05.200Z,2.47
2023-03-24T07:43:35.584Z,3.13
2023-03-24T07:46:04.340Z,2.78
2023-03-24T07:48:32.804Z,2.95
2023-03-24T07:51:03.612Z,2.63
2023-03-24T07:53:32.830Z,2.97
2023-03-24T07:56:02.229Z,2.90
2023-03-24T07:58:30.668Z,2.88
2023-03-24T08:00:59.098Z,3.33
2023-03-24T08:03:30.534Z,3.17
2023-03-24T08:06:04.550Z,3.60
2023-03-24T08:08:36.605Z,3.40
2023-03-24T08:11:05.735Z,3.40
2023-03-24T08:13:35.328Z,3.38
2023-03-24T08:16:04.178Z,3.20
2023-03-24T08:18:35.274Z,2.70
2023-03-24T08:21:03.625Z,3.15
2023-03-24T08:23:32.180Z,2.85
2023-03-24T08:26:03.329Z,5.25
2023-03-24T08:28:31.843Z,4.10
2023-03-24T08:31:01.484Z,4.45
2023-03-24T08:33:30.226Z,3.35
2023-03-24T08:35:58.895Z,2.42
2023-03-24T08:38:30.949Z,3.92
2023-03-24T08:41:02.380Z,4.35
2023-03-24T08:43:32.448Z,5.30
2023-03-24T08:46:02.718Z,2.47
2023-03-24T08:48:33.235Z,3.42
2023-03-24T08:51:01.708Z,3.40
2023-03-24T08:53:30.324Z,2.45
2023-03-24T08:55:58.812Z,2.97
2023-03-24T08:58:27.390Z,2.65
2023-03-24T09:00:57.519Z,2.90
2023-03-24T09:03:26.626Z,2.70
2023-03-24T09:05:58.810Z,2.90
2023-03-24T09:08:27.711Z,2.85
2023-03-24T09:10:56.323Z,3.70
2023-03-24T09:13:25.339Z,3.00
2023-03-24T09:16:00.201Z,2.83
2023-03-24T09:18:29.247Z,2.88
2023-03-24T09:20:57.730Z,2.92
2023-03-24T09:23:26.184Z,3.22
2023-03-24T09:25:55.103Z,2.50
2023-03-24T09:28:24.351Z,2.88
2023-03-24T09:30:57.696Z,2.15
2023-03-24T09:33:27.851Z,3.90
2023-03-24T09:35:59.291Z,2.78
2023-03-24T09:38:29.922Z,2.65
2023-03-24T09:41:03.201Z,2.60
2023-03-24T09:43:39.784Z,2.55
2023-03-24T09:46:16.240Z,2.20
2023-03-24T09:48:51.637Z,2.13
2023-03-24T09:51:24.160Z,2.55
2023-03-24T09:54:02.294Z,2.50
2023-03-24T09:56:31.932Z,2.10
2023-03-24T09:59:06.927Z,1.58
2023-03-24T10:01:36.799Z,2.28
2023-03-24T10:04:15.479Z,1.88
2023-03-24T10:06:44.789Z,2.13
2023-03-24T10:09:35.360Z,2.13
2023-03-24T10:12:18.050Z,2.13
2023-03-24T10:14:57.731Z,1.90
2023-03-24T10:17:38.494Z,2.08
2023-03-24T10:20:17.493Z,1.80
2023-03-24T10:22:58.325Z,1.70
2023-03-24T10:25:34.763Z,1.50
2023-03-24T10:28:13.200Z,1.33
2023-03-24T10:30:46.200Z,1.48
2023-03-24T10:33:16.622Z,1.92
2023-03-24T10:35:56.740Z,1.50
2023-03-24T10:38:25.657Z,1.42
2023-03-24T10:40:56.346Z,2.22
2023-03-24T10:43:25.567Z,2.00
2023-03-24T10:45:56.764Z,1.60
2023-03-24T10:48:45.494Z,1.65
2023-03-24T10:51:18.933Z,1.63
2023-03-24T10:53:49.415Z,1.67
2023-03-24T10:56:20.186Z,1.73
2023-03-24T10:58:49.940Z,1.63
2023-03-24T11:01:28.098Z,2.17
2023-03-24T11:04:01.404Z,2.10
2023-03-24T11:06:32.133Z,1.83
2023-03-24T11:09:21.899Z,1.50
2023-03-24T11:11:53.046Z,1.83
2023-03-24T11:14:26.588Z,1.73
2023-03-24T11:17:03.786Z,1.70
2023-03-24T11:19:34.760Z,1.48
2023-03-24T11:22:09.267Z,2.20
2023-03-24T11:24:39.198Z,1.88
2023-03-24T11:27:08.411Z,1.40
2023-03-24T11:29:41.373Z,1.63
2023-03-24T11:32:15.108Z,1.58
2023-03-24T11:34:49.312Z,1.83
2023-03-24T11:37:22.094Z,1.45
2023-03-24T11:40:17.039Z,1.60
2023-03-24T11:42:46.597Z,1.70
2023-03-24T11:45:25.413Z,1.40
2023-03-24T11:47:59.319Z,1.30
2023-03-24T11:50:31.186Z,1.38
2023-03-24T11:53:07.799Z,1.27
2023-03-24T11:55:39.923Z,1.05
2023-03-24T11:58:19.296Z,1.20
2023-03-24T12:00:53.057Z,1.20
2023-03-24T12:04:03.405Z,1.27
2023-03-24T12:06:45.276Z,1.23
2023-03-24T12:09:27.916Z,1.67
2023-03-24T12:12:28.377Z,1.73
2023-03-24T12:15:27.292Z,1.40
2023-03-24T12:18:10.275Z,1.70
2023-03-24T12:20:46.221Z,1.40
2023-03-24T12:23:30.839Z,1.55
2023-03-24T12:26:14.747Z,1.30
2023-03-24T12:29:00.140Z,1.10
2023-03-24T12:31:52.321Z,1.17
2023-03-24T12:34:39.550Z,1.55
2023-03-24T12:37:15.711Z,1.30
2023-03-24T12:39:52.997Z,1.25
2023-03-24T12:42:27.328Z,1.08
2023-03-24T12:45:18.465Z,1.20
2023-03-24T12:48:07.175Z,0.80
2023-03-24T12:50:48.640Z,0.98
2023-03-24T12:53:30.444Z,1.15
2023-03-24T12:56:04.722Z,1.50
2023-03-24T12:58:43.391Z,0.77
2023-03-24T13:01:20.409Z,1.10
2023-03-24T13:03:51.728Z,1.25
2023-03-24T13:06:26.449Z,0.93
2023-03-24T13:09:08.093Z,0.93
2023-03-24T13:11:45.901Z,0.80
2023-03-24T13:14:23.265Z,1.10
2023-03-24T13:16:54.756Z,0.95
2023-03-24T13:19:26.271Z,1.10
2023-03-24T13:21:57.723Z,0.90
2023-03-24T13:24:27.741Z,1.15
2023-03-24T13:27:06.728Z,1.08
2023-03-24T13:30:06.789Z,1.42
2023-03-24T13:32:39.916Z,1.08
2023-03-24T13:35:18.845Z,1.50
2023-03-24T13:37:52.482Z,1.20
2023-03-24T13:40:24.849Z,0.95
2023-03-24T13:42:58.017Z,1.00
2023-03-24T13:45:37.907Z,0.88
2023-03-24T13:48:22.205Z,1.10
2023-03-24T13:50:57.436Z,0.93
2023-03-24T13:53:35.585Z,1.02
2023-03-24T13:56:06.227Z,0.93
2023-03-24T13:59:09.923Z,0.90
2023-03-24T14:01:42.338Z,0.77
2023-03-24T14:04:47.487Z,1.25
2023-03-24T14:07:46.779Z,0.90
2023-03-24T14:10:50.021Z,1.70
2023-03-24T14:13:24.520Z,1.25
2023-03-24T14:15:54.256Z,1.30
2023-03-24T14:18:44.331Z,1.17
2023-03-24T14:21:13.371Z,1.25
2023-03-24T14:23:44.118Z,1.73
2023-03-24T14:26:16.489Z,1.38
2023-03-24T14:28:46.882Z,1.10
2023-03-24T14:31:25.903Z,1.30
2023-03-24T14:34:11.112Z,1.55
2023-03-24T14:36:42.401Z,0.98
2023-03-24T14:39:26.622Z,0.57
2023-03-24T14:41:59.046Z,0.52
2023-03-24T14:45:02.296Z,0.80
2023-03-24T14:47:34.090Z,0.63
2023-03-24T14:50:14.679Z,0.60
2023-03-24T14:52:48.482Z,0.70
2023-03-24T14:55:19.962Z,0.60
2023-03-24T14:57:53.428Z,0.60
2023-03-24T15:00:26.264Z,0.80
2023-03-24T15:02:59.221Z,0.80
2023-03-24T15:05:32.755Z,0.80
2023-03-24T15:08:15.880Z,0.80
2023-03-24T15:10:51.459Z,1.23
2023-03-24T15:13:37.093Z,0.70
2023-03-24T15:16:10.079Z,0.80
2023-03-24T15:18:59.743Z,0.70
2023-03-24T15:21:35.625Z,0.70
2023-03-24T15:24:25.006Z,0.82
2023-03-24T15:26:55.931Z,0.70
2023-03-24T15:29:26.063Z,0.60
2023-03-24T15:31:54.405Z,0.70
2023-03-24T15:34:28.674Z,0.70
2023-03-24T15:37:02.327Z,0.85
2023-03-24T15:39:35.119Z,0.70
2023-03-24T15:42:07.153Z,0.52
2023-03-24T15:44:40.083Z,0.50
2023-03-24T15:47:17.240Z,0.70
2023-03-24T15:49:51.422Z,0.50
2023-03-24T15:52:31.357Z,0.60
2023-03-24T15:55:02.850Z,1.35
2023-03-24T15:57:40.911Z,1.10
2023-03-24T16:00:16.587Z,0.75
2023-03-24T16:02:48.840Z,0.57
2023-03-24T16:05:22.752Z,0.80
2023-03-24T16:08:04.373Z,1.08
2023-03-24T16:10:40.065Z,0.95
2023-03-24T16:13:16.942Z,1.15
2023-03-24T16:15:48.326Z,1.42
2023-03-24T16:18:24.276Z,0.93
2023-03-24T16:20:52.995Z,1.05
2023-03-24T16:23:26.252Z,1.10
2023-03-24T16:25:55.231Z,1.13
2023-03-24T16:28:25.390Z,0.88
2023-03-24T16:30:59.957Z,0.98
2023-03-24T16:33:30.708Z,0.70
2023-03-24T16:35:59.206Z,1.00
2023-03-24T16:38:29.362Z,1.10
2023-03-24T16:40:59.023Z,1.00
2023-03-24T16:43:30.046Z,1.00
2023-03-24T16:45:58.816Z,0.80
2023-03-24T16:48:28.563Z,1.00
2023-03-24T16:50:58.381Z,1.02
2023-03-24T16:53:26.876Z,0.80
2023-03-24T16:55:57.131Z,0.77
2023-03-24T16:58:25.732Z,0.77
2023-03-24T17:00:56.514Z,0.70
2023-03-24T17:03:30.171Z,0.88
2023-03-24T17:06:00.214Z,0.70
2023-03-24T17:08:28.831Z,0.75
2023-03-24T17:10:59.005Z,0.95
2023-03-24T17:13:27.608Z,1.50
2023-03-24T17:15:56.562Z,0.68
2023-03-24T17:18:25.271Z,1.50
2023-03-24T17:20:54.108Z,0.88
2023-03-24T17:23:22.715Z,0.80
2023-03-24T17:25:51.180Z,0.98
2023-03-24T17:28:21.518Z,0.70
2023-03-24T17:30:50.262Z,0.95
2023-03-24T17:33:19.262Z,1.17
2023-03-24T17:35:48.872Z,0.93
2023-03-24T17:38:18.109Z,0.98
2023-03-24T17:40:47.523Z,1.10
2023-03-24T17:43:16.479Z,0.88
2023-03-24T17:45:48.179Z,0.90
2023-03-24T17:48:16.646Z,1.00
2023-03-24T17:50:45.073Z,0.95
2023-03-24T17:53:14.586Z,1.02
2023-03-24T17:55:44.201Z,1.00
2023-03-24T17:58:12.603Z,2.45
2023-03-24T18:00:43.824Z,0.95
2023-03-24T18:03:21.827Z,1.02
2023-03-24T18:05:51.391Z,1.88
2023-03-24T18:08:19.774Z,1.00
2023-03-24T18:10:48.612Z,1.40
2023-03-24T18:13:17.319Z,0.95
2023-03-24T18:15:48.326Z,0.90
2023-03-24T18:18:18.261Z,0.90
2023-03-24T18:20:47.110Z,1.17
2023-03-24T18:23:16.276Z,0.90
2023-03-24T18:25:44.830Z,1.27
2023-03-24T18:28:13.734Z,1.58
2023-03-24T18:30:43.260Z,0.95
2023-03-24T18:33:16.442Z,1.50
2023-03-24T18:35:51.208Z,1.85
2023-03-24T18:38:22.738Z,1.67
2023-03-24T18:40:59.464Z,1.13
2023-03-24T18:43:30.592Z,0.93
2023-03-24T18:45:59.192Z,1.45
2023-03-24T18:48:28.651Z,1.50
2023-03-24T18:50:59.235Z,1.42
2023-03-24T18:53:27.700Z,1.45
2023-03-24T18:55:56.281Z,0.85
2023-03-24T18:58:25.029Z,1.08
2023-03-24T19:00:56.249Z,1.42
2023-03-24T19:03:25.683Z,1.17
2023-03-24T19:05:54.439Z,1.25
2023-03-24T19:08:27.980Z,1.10
2023-03-24T19:10:56.805Z,1.52
2023-03-24T19:13:25.165Z,1.00
2023-03-24T19:15:55.706Z,1.30
2023-03-24T19:18:25.215Z,1.50
2023-03-24T19:20:57.710Z,1.30
2023-03-24T19:23:28.549Z,1.60
2023-03-24T19:25:57.445Z,0.88
2023-03-24T19:28:29.492Z,1.10
2023-03-24T19:30:57.948Z,1.27
2023-03-24T19:33:27.015Z,1.10
2023-03-24T19:35:55.664Z,1.05
2023-03-24T19:38:24.873Z,1.40
2023-03-24T19:40:55.392Z,1.10
2023-03-24T19:43:24.773Z,1.45
2023-03-24T19:45:54.647Z,2.08
2023-03-24T19:48:24.165Z,2.15
2023-03-24T19:50:54.568Z,2.17
2023-03-24T19:53:30.427Z,1.90
2023-03-24T19:56:01.447Z,1.80
2023-03-24T19:58:29.977Z,1.80
2023-03-24T20:00:58.508Z,1.75
2023-03-24T20:03:29.274Z,2.00
2023-03-24T20:05:58.040Z,1.58
2023-03-24T20:08:26.637Z,2.03
2023-03-24T20:10:55.287Z,2.08
2023-03-24T20:13:26.085Z,2.25
2023-03-24T20:15:54.718Z,2.60
2023-03-24T20:18:23.277Z,1.95
2023-03-24T20:20:51.951Z,1.80
2023-03-24T20:23:20.754Z,2.15
2023-03-24T20:25:49.982Z,2.08
2023-03-24T20:28:19.419Z,1.60
2023-03-24T20:30:49.162Z,2.45
2023-03-24T20:33:17.745Z,2.13
2023-03-24T20:35:46.246Z,2.20
2023-03-24T20:38:14.625Z,2.47
2023-03-24T20:40:43.065Z,2.13
2023-03-24T20:43:11.589Z,2.63
2023-03-24T20:45:40.146Z,2.10
2023-03-24T20:48:12.281Z,2.55
2023-03-24T20:50:41.003Z,2.28
2023-03-24T20:53:09.674Z,2.13
2023-03-24T20:55:38.146Z,2.40
2023-03-24T20:58:08.697Z,1.58
2023-03-24T21:00:38.085Z,1.75
2023-03-24T21:03:06.823Z,1.92
2023-03-24T21:05:36.853Z,1.60
2023-03-24T21:08:06.166Z,1.98
2023-03-24T21:10:36.418Z,1.40
2023-03-24T21:13:05.457Z,1.50
2023-03-24T21:15:33.892Z,1.38
2023-03-24T21:18:03.528Z,1.63
2023-03-24T21:20:32.148Z,2.20
2023-03-24T21:23:04.483Z,1.27
2023-03-24T21:25:34.296Z,1.25
2023-03-24T21:28:04.087Z,1.98
2023-03-24T21:30:33.633Z,1.50
2023-03-24T21:33:02.324Z,1.42
2023-03-24T21:35:31.463Z,1.38
2023-03-24T21:38:01.652Z,1.60
2023-03-24T21:40:30.269Z,1.17
2023-03-24T21:43:04.754Z,2.08
2023-03-24T21:45:36.492Z,2.40
2023-03-24T21:48:07.092Z,1.48
2023-03-24T21:50:39.133Z,1.50
2023-03-24T21:53:15.462Z,1.60
2023-03-24T21:55:52.969Z,1.65
2023-03-24T21:58:23.698Z,3.45
2023-03-24T22:00:53.341Z,1.00
2023-03-24T22:03:22.257Z,1.20
2023-03-24T22:05:52.338Z,2.13
2023-03-24T22:08:26.986Z,1.50
2023-03-24T22:11:00.742Z,1.70
2023-03-24T22:13:33.226Z,3.10
2023-03-24T22:16:06.441Z,3.03
2023-03-24T22:18:36.579Z,1.88
2023-03-24T22:21:07.820Z,2.15
2023-03-24T22:23:40.488Z,1.30
2023-03-24T22:26:11.352Z,1.88
2023-03-24T22:28:40.780Z,2.10
2023-03-24T22:31:11.150Z,2.10
2023-03-24T22:33:40.250Z,2.17
2023-03-24T22:36:11.615Z,1.75
2023-03-24T22:38:42.607Z,2.67
2023-03-24T22:41:14.556Z,2.90
2023-03-24T22:43:43.699Z,1.58
2023-03-24T22:46:12.869Z,1.58
2023-03-24T22:48:41.368Z,1.50
2023-03-24T22:51:12.711Z,1.45
2023-03-24T22:53:43.629Z,1.60
2023-03-24T22:56:18.302Z,4.05
2023-03-24T22:58:46.684Z,1.23
2023-03-24T23:01:17.771Z,1.60
2023-03-24T23:03:46.932Z,3.45
2023-03-24T23:06:16.068Z,1.75
2023-03-24T23:08:46.014Z,1.23
2023-03-24T23:11:17.012Z,1.10
2023-03-24T23:13:46.918Z,2.13
2023-03-24T23:16:15.646Z,1.73
2023-03-24T23:18:44.973Z,1.83
2023-03-24T23:21:15.359Z,1.75
2023-03-24T23:23:46.767Z,1.98
2023-03-24T23:26:26.188Z,2.20
2023-03-24T23:28:55.782Z,1.83
2023-03-24T23:31:27.152Z,1.33
2023-03-24T23:33:57.669Z,2.35
2023-03-24T23:36:28.639Z,2.00
2023-03-24T23:38:59.018Z,2.50
2023-03-24T23:41:29.035Z,1.50
2023-03-24T23:43:57.567Z,1.40
2023-03-24T23:46:26.087Z,1.70
2023-03-24T23:48:55.645Z,1.58
2023-03-24T23:51:24.082Z,1.83
2023-03-24T23:53:52.723Z,1.88
2023-03-24T23:56:23.170Z,1.77
2023-03-24T23:58:52.886Z,1.52
